ART weather

Watertown International Airport
Watertown, New York, United States

Public forecast

Using degrees Fahrenheit for public forecast. Weather courtesy of forecast.io.

METAR (pilot weather report)

Retrieved 2019/07/22 09:56 UTC (59 minutes ago):

KART 220956Z AUTO 09005KT 10SM SCT060 18/17 A2987 RMK AO2 SLP108 T01780167

TAF (pilot weather forecast)

Retrieved 2019/07/22 06:36 UTC (4 hours ago):

TAF KART 220534Z 2206/2306 00000KT P6SM SCT250 FM221000 07005KT P6SM BKN120 FM221500 VRB03KT P6SM BKN040 FM221600 VRB03KT P6SM BKN020 FM230000 VRB03KT P6SM BKN040